Time;durP1;ratioP1;P1;durP2;ratioP2;P2;SDS_P1;SDS_P2;PMS_P1;PMS_P2;Temp;Humidity;BMP_temperature;BMP_pressure;BME280_temperature;BME280_humidity;BME280_pressure;Samples;Min_cycle;Max_cycle;Signal;HPM_P1;HPM_P2
2022/08/24 00:01:02;;;;;;;;;;;;;;;;;;5094576;28;19923;-25
2022/08/24 00:03:28;;;;;;;;;;;;;;;;;;5094112;28;20286;-28
2022/08/24 00:05:55;;;;;;;;;;;;;;;;;;5094327;28;19912;-26
2022/08/24 00:08:20;;;;;;;;;;;;;;;;;;5094611;28;20346;-26
2022/08/24 00:10:47;;;;;;;;;;;;;;;;;;5094780;28;19908;-25
2022/08/24 00:13:13;;;;;;;;;;;;;;;;;;5097945;28;19916;-28
2022/08/24 00:15:39;;;;;;;;;;;;;;;;;;5098239;28;19912;-26
2022/08/24 00:18:04;;;;;;;;;;;;;;;;;;5097803;28;19916;-30
2022/08/24 00:20:30;;;;;;;;;;;;;;;;;;5098097;28;19909;-28
2022/08/24 00:22:57;;;;;;;;;;;;;;;;;;5097699;28;19912;-31
2022/08/24 00:25:23;;;;;;;;;;;;;;;;;;5097915;28;20041;-25
2022/08/24 00:27:48;;;;;;;;;;;;;;;;;;5097712;28;19997;-27
2022/08/24 00:30:14;;;;;;;;;;;;;;;;;;5096688;28;19916;-28
2022/08/24 00:32:41;;;;;;;;;;;;;;;;;;5097673;28;19965;-29
2022/08/24 00:35:07;;;;;;;;;;;;;;;;;;5097829;28;19965;-25
2022/08/24 00:37:33;;;;;;;;;;;;;;;;;;5097784;28;19962;-28
2022/08/24 00:39:59;;;;;;;;;;;;;;;;;;5097510;28;19974;-25
2022/08/24 00:42:25;;;;;;;;;;;;;;;;;;5097288;28;20367;-24
2022/08/24 00:44:50;;;;;;;;;;;;;;;;;;5097497;28;20278;-28
2022/08/24 00:47:17;;;;;;;;;;;;;;;;;;5097323;28;19908;-31
2022/08/24 00:49:42;;;;;;;;;;;;;;;;;;5097583;28;19912;-26
2022/08/24 00:52:09;;;;;;;;;;;;;;;;;;5097147;28;20390;-29
2022/08/24 00:54:35;;;;;;;;;;;;;;;;;;5097418;28;20242;-29
2022/08/24 00:57:01;;;;;;;;;;;;;;;;;;5097137;28;19919;-25
2022/08/24 00:59:27;;;;;;;;;;;;;;;;;;5097384;28;19920;-28
2022/08/24 01:01:53;;;;;;;;;;;;;;;;;;5097010;28;20335;-25
2022/08/24 01:04:19;;;;;;;;;;;;;;;;;;5096729;28;20010;-32
2022/08/24 01:06:47;;;;;;;;;;;;;;;;;;5096924;28;19916;-32
2022/08/24 01:09:13;;;;;;;;;;;;;;;;;;5097002;28;19911;-27
2022/08/24 01:11:39;;;;;;;;;;;;;;;;;;5096869;28;19912;-27
2022/08/24 01:14:06;;;;;;;;;;;;;;;;;;5096729;28;19911;-27
2022/08/24 01:19:17;;;;;;;;;;;;;;;;;;5097039;28;19923;-27
2022/08/24 01:21:43;;;;;;;;;;;;;;;;;;5096956;28;19908;-28
2022/08/24 01:24:10;;;;;;;;;;;;;;;;;;5096791;28;20002;-27
2022/08/24 01:26:36;;;;;;;;;;;;;;;;;;5096538;28;19918;-30
2022/08/24 01:29:02;;;;;;;;;;;;;;;;;;5096737;28;20010;-31
2022/08/24 01:31:28;;;;;;;;;;;;;;;;;;5096749;28;19998;-28
2022/08/24 01:33:54;;;;;;;;;;;;;;;;;;5096600;28;20263;-32
2022/08/24 01:36:20;;;;;;;;;;;;;;;;;;5096366;28;19934;-30
2022/08/24 01:38:46;;;;;;;;;;;;;;;;;;5096274;28;19912;-28
2022/08/24 01:41:12;;;;;;;;;;;;;;;;;;5096562;28;19912;-27
2022/08/24 01:43:38;;;;;;;;;;;;;;;;;;5096102;28;20251;-25
2022/08/24 01:46:03;;;;;;;;;;;;;;;;;;5095237;28;19941;-28
2022/08/24 01:48:30;;;;;;;;;;;;;;;;;;5096459;28;19908;-25
2022/08/24 01:50:56;;;;;;;;;;;;;;;;;;5096021;28;19912;-29
2022/08/24 01:53:22;;;;;;;;;;;;;;;;;;5095965;28;19908;-25
2022/08/24 01:55:49;;;;;;;;;;;;;;;;;;5095979;28;20343;-27
2022/08/24 01:58:15;;;;;;;;;;;;;;;;;;5096199;28;20273;-29
2022/08/24 02:00:41;;;;;;;;;;;;;;;;;;5095853;28;19908;-27
2022/08/24 02:03:06;;;;;;;;;;;;;;;;;;5095812;28;19936;-28
2022/08/24 02:05:33;;;;;;;;;;;;;;;;;;5095828;28;20278;-30
2022/08/24 02:07:59;;;;;;;;;;;;;;;;;;5095688;28;19920;-27
2022/08/24 02:10:25;;;;;;;;;;;;;;;;;;5095735;28;19912;-27
2022/08/24 02:12:57;;;;;;;;;;;;;;;;;;5095783;28;19912;-29
2022/08/24 02:15:26;;;;;;;;;;;;;;;;;;5096194;28;19977;-33
2022/08/24 02:17:52;;;;;;;;;;;;;;;;;;5095843;28;20331;-28
2022/08/24 02:20:20;;;;;;;;;;;;;;;;;;5095547;28;19912;-26
2022/08/24 02:22:46;;;;;;;;;;;;;;;;;;5095382;28;19915;-31
2022/08/24 02:25:12;;;;;;;;;;;;;;;;;;5095682;28;19915;-28
2022/08/24 02:27:38;;;;;;;;;;;;;;;;;;5095377;28;19993;-32
2022/08/24 02:30:04;;;;;;;;;;;;;;;;;;5095634;28;19915;-25
2022/08/24 02:32:30;;;;;;;;;;;;;;;;;;5095205;28;20328;-27
2022/08/24 02:34:56;;;;;;;;;;;;;;;;;;5095145;28;19908;-29
2022/08/24 02:37:22;;;;;;;;;;;;;;;;;;5095566;28;19920;-35
2022/08/24 02:39:48;;;;;;;;;;;;;;;;;;5095236;28;19970;-28
2022/08/24 02:42:14;;;;;;;;;;;;;;;;;;5095189;28;20261;-27
2022/08/24 02:44:40;;;;;;;;;;;;;;;;;;5094147;28;20331;-26
2022/08/24 02:47:06;;;;;;;;;;;;;;;;;;5095450;28;19918;-31
2022/08/24 02:49:32;;;;;;;;;;;;;;;;;;5095094;28;19919;-27
2022/08/24 02:51:58;;;;;;;;;;;;;;;;;;5095010;28;19908;-30
2022/08/24 02:54:24;;;;;;;;;;;;;;;;;;5095113;28;19909;-26
2022/08/24 02:56:50;;;;;;;;;;;;;;;;;;5094967;28;20006;-25
2022/08/24 02:59:16;;;;;;;;;;;;;;;;;;5094997;28;19908;-29
2022/08/24 03:01:42;;;;;;;;;;;;;;;;;;5094959;28;19991;-28
2022/08/24 03:04:08;;;;;;;;;;;;;;;;;;5094703;28;19920;-27
2022/08/24 03:06:34;;;;;;;;;;;;;;;;;;5095137;28;19924;-31
2022/08/24 03:09:00;;;;;;;;;;;;;;;;;;5094881;28;19970;-27
2022/08/24 03:11:26;;;;;;;;;;;;;;;;;;5094852;28;20351;-26
2022/08/24 03:13:52;;;;;;;;;;;;;;;;;;5094991;28;19919;-28
2022/08/24 03:16:18;;;;;;;;;;;;;;;;;;5094798;28;19919;-28
2022/08/24 03:18:44;;;;;;;;;;;;;;;;;;5094786;28;19919;-27
2022/08/24 03:21:10;;;;;;;;;;;;;;;;;;5094815;28;19919;-26
2022/08/24 03:23:36;;;;;;;;;;;;;;;;;;5094667;28;19924;-25
2022/08/24 03:26:02;;;;;;;;;;;;;;;;;;5094818;28;20313;-28
2022/08/24 03:28:28;;;;;;;;;;;;;;;;;;5094769;28;19908;-29
2022/08/24 03:30:54;;;;;;;;;;;;;;;;;;5094959;28;19912;-24
2022/08/24 03:33:20;;;;;;;;;;;;;;;;;;5094873;28;20409;-31
2022/08/24 03:35:46;;;;;;;;;;;;;;;;;;5094864;28;19961;-29
2022/08/24 03:38:12;;;;;;;;;;;;;;;;;;5094666;28;19919;-25
2022/08/24 03:40:39;;;;;;;;;;;;;;;;;;5094547;28;19920;-27
2022/08/24 03:43:05;;;;;;;;;;;;;;;;;;5094436;28;19940;-27
2022/08/24 03:45:31;;;;;;;;;;;;;;;;;;5094412;28;19963;-26
2022/08/24 03:47:57;;;;;;;;;;;;;;;;;;5098161;28;19908;-26
2022/08/24 03:50:23;;;;;;;;;;;;;;;;;;5098352;28;20008;-28
2022/08/24 03:52:49;;;;;;;;;;;;;;;;;;5098389;28;20315;-27
2022/08/24 03:55:15;;;;;;;;;;;;;;;;;;5098196;28;19916;-25
2022/08/24 03:57:41;;;;;;;;;;;;;;;;;;5098218;28;19908;-30
2022/08/24 04:00:07;;;;;;;;;;;;;;;;;;5098131;28;19912;-25
2022/08/24 04:02:33;;;;;;;;;;;;;;;;;;5098263;28;19912;-28
2022/08/24 04:04:59;;;;;;;;;;;;;;;;;;5097771;28;20354;-25
2022/08/24 04:07:26;;;;;;;;;;;;;;;;;;5098203;28;19965;-29
2022/08/24 04:09:52;;;;;;;;;;;;;;;;;;5097898;28;19916;-25
2022/08/24 04:12:18;;;;;;;;;;;;;;;;;;5098019;28;19935;-27
2022/08/24 04:14:44;;;;;;;;;;;;;;;;;;5097974;28;20259;-25
2022/08/24 04:17:11;;;;;;;;;;;;;;;;;;5097693;28;19909;-25
2022/08/24 04:19:37;;;;;;;;;;;;;;;;;;5097576;28;19934;-30
2022/08/24 04:22:03;;;;;;;;;;;;;;;;;;5097291;28;19909;-28
2022/08/24 04:24:30;;;;;;;;;;;;;;;;;;5097351;28;19966;-26
2022/08/24 04:26:56;;;;;;;;;;;;;;;;;;5097923;28;20288;-27
2022/08/24 04:29:22;;;;;;;;;;;;;;;;;;5097327;28;20258;-28
2022/08/24 04:31:48;;;;;;;;;;;;;;;;;;5096959;28;20365;-24
2022/08/24 04:34:14;;;;;;;;;;;;;;;;;;5097391;28;19912;-28
2022/08/24 04:36:40;;;;;;;;;;;;;;;;;;5097392;28;19908;-31
2022/08/24 04:39:05;;;;;;;;;;;;;;;;;;5097650;28;19994;-29
2022/08/24 04:41:31;;;;;;;;;;;;;;;;;;5097359;28;20371;-32
2022/08/24 04:43:58;;;;;;;;;;;;;;;;;;5097158;28;19919;-28
2022/08/24 04:46:24;;;;;;;;;;;;;;;;;;5097146;28;20347;-28
2022/08/24 04:48:50;;;;;;;;;;;;;;;;;;5097125;28;19920;-31
2022/08/24 04:51:16;;;;;;;;;;;;;;;;;;5096834;28;19919;-32
2022/08/24 04:53:42;;;;;;;;;;;;;;;;;;5096614;28;19915;-31
2022/08/24 04:56:08;;;;;;;;;;;;;;;;;;5095443;28;19912;-27
2022/08/24 04:58:34;;;;;;;;;;;;;;;;;;5096413;28;20332;-28
2022/08/24 05:01:00;;;;;;;;;;;;;;;;;;5096934;28;19918;-26
2022/08/24 05:03:27;;;;;;;;;;;;;;;;;;5096318;28;20343;-26
2022/08/24 05:05:53;;;;;;;;;;;;;;;;;;5096656;28;19919;-32
2022/08/24 05:08:19;;;;;;;;;;;;;;;;;;5096850;28;19912;-32
2022/08/24 05:10:46;;;;;;;;;;;;;;;;;;5096968;28;19920;-30
2022/08/24 05:13:12;;;;;;;;;;;;;;;;;;5096038;28;19919;-28
2022/08/24 05:15:38;;;;;;;;;;;;;;;;;;5096501;28;19908;-29
2022/08/24 05:18:04;;;;;;;;;;;;;;;;;;5095296;28;19923;-31
2022/08/24 05:20:29;;;;;;;;;;;;;;;;;;5095351;28;19967;-30
2022/08/24 05:22:55;;;;;;;;;;;;;;;;;;5096497;28;19952;-30
2022/08/24 05:25:21;;;;;;;;;;;;;;;;;;5096153;28;20023;-31
2022/08/24 05:27:47;;;;;;;;;;;;;;;;;;5096454;28;20354;-32
2022/08/24 05:30:14;;;;;;;;;;;;;;;;;;5095915;28;19991;-26
2022/08/24 05:32:40;;;;;;;;;;;;;;;;;;5096219;28;19912;-31
2022/08/24 05:35:06;;;;;;;;;;;;;;;;;;5095119;28;19915;-27
2022/08/24 05:37:32;;;;;;;;;;;;;;;;;;5096089;28;20398;-30
2022/08/24 05:39:58;;;;;;;;;;;;;;;;;;5096037;28;19919;-35
2022/08/24 05:42:24;;;;;;;;;;;;;;;;;;5094957;28;19969;-25
2022/08/24 05:44:50;;;;;;;;;;;;;;;;;;5095821;28;20347;-29
2022/08/24 05:47:16;;;;;;;;;;;;;;;;;;5095923;28;19912;-29
2022/08/24 05:49:42;;;;;;;;;;;;;;;;;;5096053;28;20232;-24
2022/08/24 05:52:08;;;;;;;;;;;;;;;;;;5095687;28;19948;-29
2022/08/24 05:54:34;;;;;;;;;;;;;;;;;;5095665;28;19912;-27
2022/08/24 05:57:03;;;;;;;;;;;;;;;;;;5095654;28;19966;-24
2022/08/24 05:59:29;;;;;;;;;;;;;;;;;;5094581;28;20189;-30
2022/08/24 06:01:55;;;;;;;;;;;;;;;;;;5095513;28;20365;-25
2022/08/24 06:04:21;;;;;;;;;;;;;;;;;;5095356;28;19986;-28
2022/08/24 06:06:48;;;;;;;;;;;;;;;;;;5095479;28;19913;-25
2022/08/24 06:09:14;;;;;;;;;;;;;;;;;;5095104;28;19908;-27
2022/08/24 06:11:40;;;;;;;;;;;;;;;;;;5095692;28;19912;-26
2022/08/24 06:14:06;;;;;;;;;;;;;;;;;;5093890;28;19912;-28
2022/08/24 06:16:32;;;;;;;;;;;;;;;;;;5094541;28;19915;-28
2022/08/24 06:18:58;;;;;;;;;;;;;;;;;;5094937;28;20003;-33
2022/08/24 06:21:24;;;;;;;;;;;;;;;;;;5094691;28;19916;-26
2022/08/24 06:23:51;;;;;;;;;;;;;;;;;;5094487;28;20239;-28
2022/08/24 06:29:01;;;;;;;;;;;;;;;;;;5094879;28;20350;-31
2022/08/24 06:31:27;;;;;;;;;;;;;;;;;;5094479;28;19908;-26
2022/08/24 06:33:53;;;;;;;;;;;;;;;;;;5094504;28;19913;-25
2022/08/24 06:36:20;;;;;;;;;;;;;;;;;;5094207;28;20315;-27
2022/08/24 06:38:46;;;;;;;;;;;;;;;;;;5094889;28;19923;-28
2022/08/24 06:41:12;;;;;;;;;;;;;;;;;;5094959;28;19912;-28
2022/08/24 06:43:38;;;;;;;;;;;;;;;;;;5094864;28;19912;-25
2022/08/24 06:46:04;;;;;;;;;;;;;;;;;;5093755;28;19923;-28
2022/08/24 06:48:30;;;;;;;;;;;;;;;;;;5094856;28;20258;-28
2022/08/24 06:50:56;;;;;;;;;;;;;;;;;;5094577;28;19915;-30
2022/08/24 06:53:22;;;;;;;;;;;;;;;;;;5094614;28;19916;-27
2022/08/24 06:55:48;;;;;;;;;;;;;;;;;;5094593;28;19999;-25
2022/08/24 06:58:14;;;;;;;;;;;;;;;;;;5094665;28;19943;-28
2022/08/24 07:00:40;;;;;;;;;;;;;;;;;;5094527;28;20270;-27
2022/08/24 07:03:06;;;;;;;;;;;;;;;;;;5094061;28;19926;-27
2022/08/24 07:05:32;;;;;;;;;;;;;;;;;;5094324;28;20075;-25
2022/08/24 07:07:58;;;;;;;;;;;;;;;;;;5093108;28;19912;-26
2022/08/24 07:10:24;;;;;;;;;;;;;;;;;;5094351;28;19909;-27
2022/08/24 07:12:50;;;;;;;;;;;;;;;;;;5094359;28;19912;-27
2022/08/24 07:15:18;;;;;;;;;;;;;;;;;;5094330;28;19908;-26
2022/08/24 07:17:44;;;;;;;;;;;;;;;;;;5094427;28;19912;-25
2022/08/24 07:20:11;;;;;;;;;;;;;;;;;;5095272;28;20042;-24
2022/08/24 07:22:37;;;;;;;;;;;;;;;;;;5098617;28;20303;-30
2022/08/24 07:25:03;;;;;;;;;;;;;;;;;;5098505;28;20255;-27
2022/08/24 07:27:29;;;;;;;;;;;;;;;;;;5097648;28;19908;-30
2022/08/24 07:29:56;;;;;;;;;;;;;;;;;;5098661;28;19924;-29
2022/08/24 07:32:22;;;;;;;;;;;;;;;;;;5098323;28;19915;-27
2022/08/24 07:34:48;;;;;;;;;;;;;;;;;;5098262;28;20265;-29
2022/08/24 07:37:14;;;;;;;;;;;;;;;;;;5098148;28;19912;-29
2022/08/24 07:39:40;;;;;;;;;;;;;;;;;;5098360;28;19919;-28
2022/08/24 07:42:06;;;;;;;;;;;;;;;;;;5097903;28;19912;-29
2022/08/24 07:44:32;;;;;;;;;;;;;;;;;;5098202;28;19955;-28
2022/08/24 07:46:58;;;;;;;;;;;;;;;;;;5097911;28;19942;-31
2022/08/24 07:49:25;;;;;;;;;;;;;;;;;;5097979;28;19908;-31
2022/08/24 07:51:52;;;;;;;;;;;;;;;;;;5097556;28;19919;-27
2022/08/24 07:54:18;;;;;;;;;;;;;;;;;;5097715;28;20341;-27
2022/08/24 07:56:44;;;;;;;;;;;;;;;;;;5097699;28;19923;-26
2022/08/24 07:59:10;;;;;;;;;;;;;;;;;;5097998;28;19908;-28
2022/08/24 08:01:37;;;;;;;;;;;;;;;;;;5096845;28;20235;-30
2022/08/24 08:04:03;;;;;;;;;;;;;;;;;;5097615;28;19919;-31
2022/08/24 08:06:29;;;;;;;;;;;;;;;;;;5097834;28;19914;-23
2022/08/24 08:08:55;;;;;;;;;;;;;;;;;;5097712;28;19916;-29
2022/08/24 08:11:21;;;;;;;;;;;;;;;;;;5098140;28;19912;-30
2022/08/24 08:13:47;;;;;;;;;;;;;;;;;;5097770;28;20027;-26
2022/08/24 08:16:14;;;;;;;;;;;;;;;;;;5096590;28;20347;-26
2022/08/24 08:18:40;;;;;;;;;;;;;;;;;;5097775;28;19919;-29
2022/08/24 08:24:13;;;;;;;;;;;;;;;;;;5097285;28;19967;-27
2022/08/24 08:26:37;;;;;;;;;;;;;;;;;;5097377;28;20002;-32
2022/08/24 08:29:03;;;;;;;;;;;;;;;;;;5097995;28;19912;-30
2022/08/24 08:31:29;;;;;;;;;;;;;;;;;;5096961;28;20250;-23
2022/08/24 08:33:56;;;;;;;;;;;;;;;;;;5096865;28;19912;-23
2022/08/24 08:36:22;;;;;;;;;;;;;;;;;;5097340;28;19916;-25
2022/08/24 08:38:48;;;;;;;;;;;;;;;;;;5095834;28;20008;-22
2022/08/24 08:41:18;;;;;;;;;;;;;;;;;;5096852;28;19919;-24
2022/08/24 08:43:44;;;;;;;;;;;;;;;;;;5096622;28;20258;-26
2022/08/24 08:46:10;;;;;;;;;;;;;;;;;;5096431;28;19908;-25
2022/08/24 08:48:36;;;;;;;;;;;;;;;;;;5096227;28;20331;-24
2022/08/24 08:51:02;;;;;;;;;;;;;;;;;;5096237;28;20003;-28
2022/08/24 08:53:28;;;;;;;;;;;;;;;;;;5096537;28;19950;-30
2022/08/24 08:55:55;;;;;;;;;;;;;;;;;;5096453;28;20267;-26
2022/08/24 08:58:21;;;;;;;;;;;;;;;;;;5096166;28;19923;-26
2022/08/24 09:00:48;;;;;;;;;;;;;;;;;;5096371;28;19908;-28
2022/08/24 09:03:16;;;;;;;;;;;;;;;;;;5095727;28;19920;-24
2022/08/24 09:05:42;;;;;;;;;;;;;;;;;;5096224;28;20035;-27
2022/08/24 09:08:09;;;;;;;;;;;;;;;;;;5095954;28;19919;-28
2022/08/24 09:10:35;;;;;;;;;;;;;;;;;;5096012;28;19912;-25
2022/08/24 09:13:01;;;;;;;;;;;;;;;;;;5095908;28;19923;-26
2022/08/24 09:15:27;;;;;;;;;;;;;;;;;;5095884;28;19922;-29
2022/08/24 09:17:53;;;;;;;;;;;;;;;;;;5096817;28;19995;-27
2022/08/24 09:20:20;;;;;;;;;;;;;;;;;;5094785;28;20323;-24
2022/08/24 09:22:49;;;;;;;;;;;;;;;;;;5096261;28;19988;-29
2022/08/24 09:25:15;;;;;;;;;;;;;;;;;;5096101;28;19955;-27
2022/08/24 09:27:42;;;;;;;;;;;;;;;;;;5095928;28;20300;-28
2022/08/24 09:30:08;;;;;;;;;;;;;;;;;;5095746;28;19950;-28
2022/08/24 09:32:34;;;;;;;;;;;;;;;;;;5095815;28;19908;-27
2022/08/24 09:37:47;;;;;;;;;;;;;;;;;;5099728;28;20303;-30
2022/08/24 09:40:16;;;;;;;;;;;;;;;;;;5098828;28;19912;-31
2022/08/24 09:42:46;;;;;;;;;;;;;;;;;;5098213;28;19964;-25
2022/08/24 09:45:17;;;;;;;;;;;;;;;;;;5098115;28;20061;-28
2022/08/24 09:47:46;;;;;;;;;;;;;;;;;;5097427;28;19988;-27
2022/08/24 09:50:22;;;;;;;;;;;;;;;;;;5099312;28;20069;-26
2022/08/24 09:55:54;;;;;;;;;;;;;;;;;;5100209;28;19923;-25
2022/08/24 09:58:26;;;;;;;;;;;;;;;;;;5099244;28;19919;-29
2022/08/24 10:00:56;;;;;;;;;;;;;;;;;;5097784;28;19912;-24
2022/08/24 10:03:26;;;;;;;;;;;;;;;;;;5098102;28;19916;-27
2022/08/24 10:06:01;;;;;;;;;;;;;;;;;;5098919;28;19973;-27
2022/08/24 10:08:31;;;;;;;;;;;;;;;;;;5097110;28;19951;-27
2022/08/24 10:11:04;;;;;;;;;;;;;;;;;;5099158;28;19999;-32
2022/08/24 10:16:23;;;;;;;;;;;;;;;;;;5099468;28;20358;-30
2022/08/24 10:19:03;;;;;;;;;;;;;;;;;;5098522;28;19912;-24
2022/08/24 10:21:35;;;;;;;;;;;;;;;;;;5096908;28;19908;-30
2022/08/24 10:26:53;;;;;;;;;;;;;;;;;;5098249;28;19939;-27
2022/08/24 10:32:11;;;;;;;;;;;;;;;;;;5098118;28;19938;-30
2022/08/24 10:34:39;;;;;;;;;;;;;;;;;;5096507;28;19912;-26
2022/08/24 10:37:07;;;;;;;;;;;;;;;;;;5097210;28;19912;-25
2022/08/24 10:39:42;;;;;;;;;;;;;;;;;;5096616;28;19908;-31
2022/08/24 10:42:10;;;;;;;;;;;;;;;;;;5097087;28;19958;-26
2022/08/24 10:44:39;;;;;;;;;;;;;;;;;;5095867;28;19916;-32
2022/08/24 10:47:11;;;;;;;;;;;;;;;;;;5097331;28;19916;-27
2022/08/24 10:49:41;;;;;;;;;;;;;;;;;;5097324;28;19994;-27
2022/08/24 10:52:20;;;;;;;;;;;;;;;;;;5095996;28;19912;-26
2022/08/24 10:54:53;;;;;;;;;;;;;;;;;;5095979;28;19915;-25
2022/08/24 10:57:22;;;;;;;;;;;;;;;;;;5097019;28;19922;-31
2022/08/24 10:59:49;;;;;;;;;;;;;;;;;;5096388;28;19923;-31
2022/08/24 11:02:20;;;;;;;;;;;;;;;;;;5096776;28;19912;-31
2022/08/24 11:04:47;;;;;;;;;;;;;;;;;;5096358;28;20243;-28
2022/08/24 11:07:22;;;;;;;;;;;;;;;;;;5095851;28;20252;-29
2022/08/24 11:09:55;;;;;;;;;;;;;;;;;;5097965;28;19912;-26
2022/08/24 11:12:23;;;;;;;;;;;;;;;;;;5095978;28;19990;-28
2022/08/24 11:14:51;;;;;;;;;;;;;;;;;;5096441;28;19967;-28
2022/08/24 11:17:22;;;;;;;;;;;;;;;;;;5096062;28;20296;-28
2022/08/24 11:19:57;;;;;;;;;;;;;;;;;;5096817;28;19912;-29
2022/08/24 11:22:26;;;;;;;;;;;;;;;;;;5097307;28;19995;-30
2022/08/24 11:24:53;;;;;;;;;;;;;;;;;;5096042;28;19916;-28
2022/08/24 11:27:23;;;;;;;;;;;;;;;;;;5095616;28;19935;-28
2022/08/24 11:29:57;;;;;;;;;;;;;;;;;;5096556;28;19912;-27
2022/08/24 11:32:25;;;;;;;;;;;;;;;;;;5095618;28;19975;-28
2022/08/24 11:34:53;;;;;;;;;;;;;;;;;;5097230;28;19991;-24
2022/08/24 11:37:22;;;;;;;;;;;;;;;;;;5095979;28;19908;-25
2022/08/24 11:39:52;;;;;;;;;;;;;;;;;;5096293;28;19912;-29
2022/08/24 11:45:18;;;;;;;;;;;;;;;;;;5097382;28;20040;-27
2022/08/24 11:47:54;;;;;;;;;;;;;;;;;;5097286;28;20263;-24
2022/08/24 11:56:17;;;;;;;;;;;;;;;;;;5097418;28;19966;-26
2022/08/24 12:01:38;;;;;;;;;;;;;;;;;;5097557;28;20348;-35
2022/08/24 12:29:23;;;;;;;;;;;;;;;;;;5017358;28;19925;-23
2022/08/24 12:31:49;;;;;;;;;;;;;;;;;;5016046;28;19923;-23
2022/08/24 12:34:15;;;;;;;;;;;;;;;;;;5017235;28;19914;-23
2022/08/24 12:36:41;;;;;;;;;;;;;;;;;;5017352;28;19971;-23
2022/08/24 12:39:07;;;;;;;;;;;;;;;;;;5017118;28;20324;-23
2022/08/24 12:41:33;;;;;;;;;;;;;;;;;;5017176;28;19920;-25
2022/08/24 12:43:59;;;;;;;;;;;;;;;;;;5017044;28;19937;-26
2022/08/24 12:46:26;;;;;;;;;;;;;;;;;;5017024;28;19971;-23
2022/08/24 12:48:52;;;;;;;;;;;;;;;;;;5017363;28;19914;-23
2022/08/24 12:51:18;;;;;;;;;;;;;;;;;;5017032;28;19913;-23
2022/08/24 12:53:44;;;;;;;;;;;;;;;;;;5017216;28;19928;-23
2022/08/24 12:56:10;;;;;;;;;;;;;;;;;;5017483;28;19967;-22
2022/08/24 12:58:38;;;;;;;;;;;;;;;;;;5016579;28;20323;-24
2022/08/24 13:01:04;;;;;;;;;;;;;;;;;;5016581;28;19978;-24
2022/08/24 13:03:30;;;;;;;;;;;;;;;;;;5016736;28;20331;-25
2022/08/24 13:05:56;;;;;;;;;;;;;;;;;;5015894;28;19917;-23
2022/08/24 13:08:23;;;;;;;;;;;;;;;;;;5016999;28;19971;-24
2022/08/24 13:10:49;;;;;;;;;;;;;;;;;;5016853;28;19925;-24
2022/08/24 13:13:15;;;;;;;;;;;;;;;;;;5016585;28;19929;-24
2022/08/24 13:15:41;;;;;;;;;;;;;;;;;;5015330;28;19982;-24
2022/08/24 13:18:07;;;;;;;;;;;;;;;;;;5014973;28;19978;-24
2022/08/24 13:20:33;;;;;;;;;;;;;;;;;;5016549;28;19917;-24
2022/08/24 13:22:59;;;;;;;;;;;;;;;;;;5016103;28;19941;-24
2022/08/24 13:25:26;;;;;;;;;;;;;;;;;;5015692;28;19969;-23
2022/08/24 13:27:52;;;;;;;;;;;;;;;;;;5015872;28;19913;-24
2022/08/24 13:30:18;;;;;;;;;;;;;;;;;;5014822;28;19924;-30
2022/08/24 13:32:43;;;;;;;;;;;;;;;;;;5014776;28;19944;-23
2022/08/24 13:35:10;;;;;;;;;;;;;;;;;;5016085;28;19913;-23
2022/08/24 13:37:37;;;;;;;;;;;;;;;;;;5016130;28;20313;-23
2022/08/24 13:40:09;;;;;;;;;;;;;;;;;;5014892;28;19914;-23
2022/08/24 13:42:35;;;;;;;;;;;;;;;;;;5015788;28;19949;-23
2022/08/24 13:45:01;;;;;;;;;;;;;;;;;;5015351;28;19921;-24
2022/08/24 13:47:27;;;;;;;;;;;;;;;;;;5016035;28;20368;-24
2022/08/24 13:50:00;;;;;;;;;;;;;;;;;;5015895;28;19914;-24
2022/08/24 13:52:27;;;;;;;;;;;;;;;;;;5015809;28;19909;-24
2022/08/24 13:54:53;;;;;;;;;;;;;;;;;;5015851;28;19971;-24
2022/08/24 13:57:19;;;;;;;;;;;;;;;;;;5015513;28;19941;-24
2022/08/24 13:59:45;;;;;;;;;;;;;;;;;;5015776;28;19996;-24
2022/08/24 14:02:11;;;;;;;;;;;;;;;;;;5015573;28;20363;-24
2022/08/24 14:04:37;;;;;;;;;;;;;;;;;;5015660;28;19932;-24
2022/08/24 14:07:03;;;;;;;;;;;;;;;;;;5015757;28;19910;-24
2022/08/24 14:09:29;;;;;;;;;;;;;;;;;;5016083;28;20340;-24
2022/08/24 14:11:55;;;;;;;;;;;;;;;;;;5015345;28;19975;-24
2022/08/24 14:14:21;;;;;;;;;;;;;;;;;;5015623;28;20421;-24
2022/08/24 14:19:32;;;;;;;;;;;;;;;;;;5015469;28;19975;-23
2022/08/24 14:21:58;;;;;;;;;;;;;;;;;;5015254;28;19913;-23
2022/08/24 14:24:24;;;;;;;;;;;;;;;;;;5015143;28;19921;-23
2022/08/24 14:26:50;;;;;;;;;;;;;;;;;;5015370;28;19913;-24
2022/08/24 14:29:19;;;;;;;;;;;;;;;;;;5015577;28;19949;-23
2022/08/24 14:31:45;;;;;;;;;;;;;;;;;;5014658;28;19953;-24
2022/08/24 14:34:12;;;;;;;;;;;;;;;;;;5014910;28;19987;-23
2022/08/24 14:36:38;;;;;;;;;;;;;;;;;;5015011;28;19914;-23
2022/08/24 14:39:04;;;;;;;;;;;;;;;;;;5015068;28;19972;-23
2022/08/24 14:41:30;;;;;;;;;;;;;;;;;;5014894;28;19996;-23
2022/08/24 14:43:56;;;;;;;;;;;;;;;;;;5014612;28;19914;-24
2022/08/24 14:46:23;;;;;;;;;;;;;;;;;;5014940;28;19967;-23
2022/08/24 14:48:49;;;;;;;;;;;;;;;;;;5014775;28;19921;-23
2022/08/24 14:51:15;;;;;;;;;;;;;;;;;;5014680;28;19914;-24
2022/08/24 14:53:41;;;;;;;;;;;;;;;;;;5013919;28;19988;-23
2022/08/24 14:56:07;;;;;;;;;;;;;;;;;;5013935;28;19914;-23
2022/08/24 14:58:33;;;;;;;;;;;;;;;;;;5014889;28;19913;-23
2022/08/24 15:00:59;;;;;;;;;;;;;;;;;;5014893;28;19923;-23
2022/08/24 15:03:25;;;;;;;;;;;;;;;;;;5014692;28;20261;-24
2022/08/24 15:05:51;;;;;;;;;;;;;;;;;;5014577;28;19918;-23
2022/08/24 15:08:17;;;;;;;;;;;;;;;;;;5014648;28;20000;-23
2022/08/24 15:10:43;;;;;;;;;;;;;;;;;;5014924;28;20301;-24
2022/08/24 15:13:10;;;;;;;;;;;;;;;;;;5014856;28;19944;-24
2022/08/24 15:15:38;;;;;;;;;;;;;;;;;;5014258;28;19913;-23
2022/08/24 15:18:04;;;;;;;;;;;;;;;;;;5012698;28;20241;-23
2022/08/24 15:20:30;;;;;;;;;;;;;;;;;;5013922;28;19913;-23
2022/08/24 15:22:56;;;;;;;;;;;;;;;;;;5013904;28;19975;-23
2022/08/24 15:25:22;;;;;;;;;;;;;;;;;;5013707;28;20063;-23
2022/08/24 15:27:48;;;;;;;;;;;;;;;;;;5014016;28;19913;-24
2022/08/24 15:30:14;;;;;;;;;;;;;;;;;;5013882;28;20071;-24
2022/08/24 15:32:42;;;;;;;;;;;;;;;;;;5014000;28;20004;-25
2022/08/24 15:35:08;;;;;;;;;;;;;;;;;;5013845;28;20221;-24
2022/08/24 15:37:34;;;;;;;;;;;;;;;;;;5014451;28;19914;-24
2022/08/24 15:40:00;;;;;;;;;;;;;;;;;;5014538;28;19920;-24
2022/08/24 15:42:26;;;;;;;;;;;;;;;;;;5017497;28;19913;-24
2022/08/24 15:44:52;;;;;;;;;;;;;;;;;;5018410;28;19991;-24
2022/08/24 15:47:18;;;;;;;;;;;;;;;;;;5018229;28;20344;-24
2022/08/24 15:49:44;;;;;;;;;;;;;;;;;;5018337;28;19914;-24
2022/08/24 15:52:10;;;;;;;;;;;;;;;;;;5018348;28;20031;-24
2022/08/24 15:54:36;;;;;;;;;;;;;;;;;;5018309;28;19922;-23
2022/08/24 15:57:02;;;;;;;;;;;;;;;;;;5018323;28;19909;-23
2022/08/24 15:59:28;;;;;;;;;;;;;;;;;;5016907;28;20067;-23
2022/08/24 16:04:39;;;;;;;;;;;;;;;;;;5017491;28;19928;-23
2022/08/24 16:07:05;;;;;;;;;;;;;;;;;;5017496;28;19917;-23
2022/08/24 16:09:31;;;;;;;;;;;;;;;;;;5017365;28;19913;-24
2022/08/24 16:11:57;;;;;;;;;;;;;;;;;;5017509;28;19922;-24
2022/08/24 16:14:26;;;;;;;;;;;;;;;;;;5017648;28;19949;-24
2022/08/24 16:16:52;;;;;;;;;;;;;;;;;;5017490;28;19913;-24
2022/08/24 16:19:18;;;;;;;;;;;;;;;;;;5017518;28;20024;-24
2022/08/24 16:21:46;;;;;;;;;;;;;;;;;;5017445;28;20032;-24
2022/08/24 16:24:12;;;;;;;;;;;;;;;;;;5017231;28;19929;-23
2022/08/24 16:26:38;;;;;;;;;;;;;;;;;;5017454;28;19964;-23
2022/08/24 16:29:04;;;;;;;;;;;;;;;;;;5017466;28;19909;-24
2022/08/24 16:31:30;;;;;;;;;;;;;;;;;;5017544;28;19963;-24
2022/08/24 16:33:56;;;;;;;;;;;;;;;;;;5017333;28;20344;-23
2022/08/24 16:36:22;;;;;;;;;;;;;;;;;;5016818;28;19914;-24
2022/08/24 16:38:48;;;;;;;;;;;;;;;;;;5017311;28;19905;-24
2022/08/24 16:41:15;;;;;;;;;;;;;;;;;;5016769;28;19913;-24
2022/08/24 16:43:42;;;;;;;;;;;;;;;;;;5017120;28;19910;-24
2022/08/24 16:46:08;;;;;;;;;;;;;;;;;;5016805;28;20348;-24
2022/08/24 16:48:34;;;;;;;;;;;;;;;;;;5016969;28;19964;-24
2022/08/24 16:51:00;;;;;;;;;;;;;;;;;;5017193;28;19956;-24
2022/08/24 16:53:25;;;;;;;;;;;;;;;;;;5016367;28;19975;-24
2022/08/24 16:55:52;;;;;;;;;;;;;;;;;;5017177;28;19940;-23
2022/08/24 16:58:17;;;;;;;;;;;;;;;;;;5016885;28;20301;-23
2022/08/24 17:00:44;;;;;;;;;;;;;;;;;;5016935;28;19944;-23
2022/08/24 17:03:10;;;;;;;;;;;;;;;;;;5017071;28;20011;-24
2022/08/24 17:05:36;;;;;;;;;;;;;;;;;;5016867;28;19961;-23
2022/08/24 17:08:02;;;;;;;;;;;;;;;;;;5016703;28;19991;-23
2022/08/24 17:10:28;;;;;;;;;;;;;;;;;;5016197;28;19920;-29
2022/08/24 17:12:54;;;;;;;;;;;;;;;;;;5016507;28;19975;-23
2022/08/24 17:15:20;;;;;;;;;;;;;;;;;;5016707;28;20004;-23
2022/08/24 17:17:46;;;;;;;;;;;;;;;;;;5015390;28;19925;-23
2022/08/24 17:20:12;;;;;;;;;;;;;;;;;;5016363;28;20344;-23
2022/08/24 17:22:38;;;;;;;;;;;;;;;;;;5016273;28;19921;-23
2022/08/24 17:25:05;;;;;;;;;;;;;;;;;;5016293;28;19936;-23
2022/08/24 17:27:31;;;;;;;;;;;;;;;;;;5015300;28;20367;-23
2022/08/24 17:29:57;;;;;;;;;;;;;;;;;;5016415;28;19909;-23
2022/08/24 17:32:24;;;;;;;;;;;;;;;;;;5015784;28;19992;-23
2022/08/24 17:34:50;;;;;;;;;;;;;;;;;;5016058;28;19909;-23
2022/08/24 17:37:16;;;;;;;;;;;;;;;;;;5015942;28;20351;-23
2022/08/24 17:39:42;;;;;;;;;;;;;;;;;;5016261;28;20324;-23
2022/08/24 17:42:08;;;;;;;;;;;;;;;;;;5014915;28;19936;-23
2022/08/24 17:44:35;;;;;;;;;;;;;;;;;;5015612;28;19913;-23
2022/08/24 17:47:02;;;;;;;;;;;;;;;;;;5013926;28;20276;-25